Главная страница
METAR-TAF:

METAR-TAF

Аэропорты :

Футуна, Франция

широта: 14-19S, долгота: 178-07W, высота над уровнем моря: 6 м

METAR: отсутствует

Время: 21:51 (09:51 UTC)

Прогноз

Эта сводка был подготовлена 4 часа и 51 минут назад, в 05:00 UTC
Прогноз действительный с 24-го 06 UTC до 25-го 06 UTC
Ветер 2 Узел переменных направлений
Видимость 10 км и более
Отдельные облака на высоте 3000 фута
Вероятность 40% :
временами
С 24-го 06 UTC до 24-го 20 UTC
ливневые дожди
изменения
С 24-го 21 UTC до 24-го 24 UTC
Ветер 10 Узел от восточный

TAF: NLWF 240500Z 2406/2506 VRB02KT 9999 SCT030 PROB40 TEMPO 2406/2420 SHRA BECMG 2421/2424 10010KT

Метеонаблюдения и прогнозы для более 4000 аэропортов (сводки METAR и TAF).

Имеющиеся станции представлены на карте желтыми и красными точками.

Чтобы увидеть название станции, наведите на нее мышь.

Затем щелкните, чтобы увидеть метеонаблюдения и метеопрогнозы.

Управление картой: чтобы увеличить масштаб, щелкните зеленые кнопки с черным крестиком; чтобы уменьшить масштаб, щелкните зеленую кнопку с тире; для просмотра соседних карт щелкайте зеленые стрелки.


METAR-TAF: